Time;durP1;ratioP1;P1;durP2;ratioP2;P2;SDS_P1;SDS_P2;PMS_P1;PMS_P2;Temp;Humidity;BMP_temperature;BMP_pressure;BME280_temperature;BME280_humidity;BME280_pressure;Samples;Min_cycle;Max_cycle;Signal;HPM_P1;HPM_P2
2024/03/09 00:01:53;;;;;;;27.70;11.73;;;;;;;;;;7346552;19;20715;-50
2024/03/09 00:04:22;;;;;;;38.07;13.47;;;;;;;;;;7326499;19;20403;-49
2024/03/09 00:06:52;;;;;;;33.23;11.70;;;;;;;;;;7348670;19;20917;-55
2024/03/09 00:09:22;;;;;;;30.97;11.70;;;;;;;;;;7326706;19;20488;-54
2024/03/09 00:11:54;;;;;;;34.43;12.30;;;;;;;;;;7351117;19;20406;-51
2024/03/09 00:14:23;;;;;;;34.50;12.13;;;;;;;;;;7327838;19;20410;-52
2024/03/09 00:16:53;;;;;;;32.73;13.40;;;;;;;;;;7350882;19;20459;-52
2024/03/09 00:19:22;;;;;;;25.33;11.40;;;;;;;;;;7326065;19;20431;-54
2024/03/09 00:21:52;;;;;;;30.23;12.20;;;;;;;;;;7350265;19;20495;-55
2024/03/09 00:24:22;;;;;;;30.70;12.90;;;;;;;;;;7326041;19;20439;-55
2024/03/09 00:26:54;;;;;;;25.60;11.40;;;;;;;;;;7347380;19;21005;-49
2024/03/09 00:29:24;;;;;;;31.20;11.87;;;;;;;;;;7326916;19;20417;-51
2024/03/09 00:31:54;;;;;;;31.30;12.60;;;;;;;;;;7349380;19;20571;-49
2024/03/09 00:34:23;;;;;;;36.47;12.37;;;;;;;;;;7327417;19;20430;-52
2024/03/09 00:36:53;;;;;;;26.97;12.00;;;;;;;;;;7349960;19;20435;-51
2024/03/09 00:39:22;;;;;;;29.73;12.50;;;;;;;;;;7326562;19;20496;-54
2024/03/09 00:41:54;;;;;;;28.73;11.70;;;;;;;;;;7350282;19;20460;-52
2024/03/09 00:44:23;;;;;;;28.07;11.97;;;;;;;;;;7326376;19;20427;-50
2024/03/09 00:46:53;;;;;;;36.10;13.70;;;;;;;;;;7349753;19;20486;-54
2024/03/09 00:49:22;;;;;;;28.03;11.93;;;;;;;;;;7325763;19;20971;-53
2024/03/09 00:51:52;;;;;;;33.67;12.53;;;;;;;;;;7349949;19;20418;-54
2024/03/09 00:54:22;;;;;;;31.03;12.20;;;;;;;;;;7324510;19;20957;-51
2024/03/09 00:56:54;;;;;;;25.47;11.97;;;;;;;;;;7346322;19;20756;-51
2024/03/09 00:59:24;;;;;;;32.43;13.17;;;;;;;;;;7324132;19;20434;-54
2024/03/09 01:01:55;;;;;;;31.77;12.23;;;;;;;;;;7345806;19;20390;-51
2024/03/09 01:04:26;;;;;;;28.43;11.33;;;;;;;;;;7323204;19;20418;-53
2024/03/09 01:06:55;;;;;;;32.27;13.27;;;;;;;;;;7345792;19;20412;-51
2024/03/09 01:09:25;;;;;;;28.87;11.93;;;;;;;;;;7323088;19;20414;-55
2024/03/09 01:11:57;;;;;;;26.23;11.47;;;;;;;;;;7346540;19;20390;-53
2024/03/09 01:14:27;;;;;;;25.70;11.47;;;;;;;;;;7323847;19;20966;-51
2024/03/09 01:16:56;;;;;;;29.10;12.43;;;;;;;;;;7346098;19;20394;-50
2024/03/09 01:19:26;;;;;;;27.27;12.30;;;;;;;;;;7321650;19;20872;-53
2024/03/09 01:22:04;;;;;;;30.30;12.80;;;;;;;;;;7345901;19;20478;-51
2024/03/09 01:24:34;;;;;;;33.43;13.10;;;;;;;;;;7323248;19;20427;-49
2024/03/09 01:27:06;;;;;;;26.80;11.63;;;;;;;;;;7340993;19;20423;-55
2024/03/09 01:29:35;;;;;;;37.90;12.40;;;;;;;;;;7325177;19;20514;-51
2024/03/09 01:32:05;;;;;;;27.47;12.03;;;;;;;;;;7349575;19;21134;-51
2024/03/09 01:34:35;;;;;;;28.60;11.73;;;;;;;;;;7325850;19;23666;-50
2024/03/09 01:37:05;;;;;;;28.87;12.53;;;;;;;;;;7348007;19;20415;-56
2024/03/09 01:39:34;;;;;;;28.10;12.20;;;;;;;;;;7322873;19;20401;-50
2024/03/09 01:42:08;;;;;;;23.00;11.43;;;;;;;;;;7343883;19;20774;-49
2024/03/09 01:44:37;;;;;;;30.33;12.57;;;;;;;;;;7322859;19;20533;-52
2024/03/09 01:47:09;;;;;;;29.03;13.50;;;;;;;;;;7345115;19;20389;-50
2024/03/09 01:49:39;;;;;;;28.30;12.43;;;;;;;;;;7324489;19;21112;-50
2024/03/09 01:52:10;;;;;;;29.83;12.13;;;;;;;;;;7347508;19;20798;-51
2024/03/09 01:54:41;;;;;;;33.73;13.00;;;;;;;;;;7324792;19;20454;-52
2024/03/09 01:57:15;;;;;;;28.73;12.30;;;;;;;;;;7345026;19;20382;-51
2024/03/09 01:59:46;;;;;;;34.87;14.20;;;;;;;;;;7323750;19;20930;-56
2024/03/09 02:02:16;;;;;;;30.40;12.47;;;;;;;;;;7340496;19;20411;-52
2024/03/09 02:04:46;;;;;;;28.03;13.07;;;;;;;;;;7344426;19;20962;-50
2024/03/09 02:07:16;;;;;;;27.20;13.17;;;;;;;;;;7344438;19;20419;-55
2024/03/09 02:09:48;;;;;;;58.53;24.10;;;;;;;;;;7344564;19;20426;-52
2024/03/09 02:12:21;;;;;;;37.03;16.10;;;;;;;;;;7326109;19;20419;-52
2024/03/09 02:14:50;;;;;;;38.67;14.80;;;;;;;;;;7345282;19;20470;-51
2024/03/09 02:17:20;;;;;;;41.60;17.00;;;;;;;;;;7318468;19;20467;-57
2024/03/09 02:19:51;;;;;;;32.67;13.40;;;;;;;;;;7338975;19;20423;-55
2024/03/09 02:22:21;;;;;;;38.83;15.53;;;;;;;;;;7323924;19;20423;-57
2024/03/09 02:24:58;;;;;;;38.00;14.83;;;;;;;;;;7346508;19;20754;-55
2024/03/09 02:27:28;;;;;;;40.53;15.40;;;;;;;;;;7322072;19;21022;-54
2024/03/09 02:29:57;;;;;;;30.47;13.87;;;;;;;;;;7344968;19;20478;-58
2024/03/09 02:32:27;;;;;;;33.83;12.73;;;;;;;;;;7317795;19;20414;-55
2024/03/09 02:34:56;;;;;;;37.63;12.40;;;;;;;;;;7346154;19;20422;-60
2024/03/09 02:37:26;;;;;;;32.10;13.53;;;;;;;;;;7323265;19;20446;-59
2024/03/09 02:39:58;;;;;;;36.33;15.00;;;;;;;;;;7346555;19;20431;-59
2024/03/09 02:42:27;;;;;;;32.63;13.10;;;;;;;;;;7323765;19;20445;-59
2024/03/09 02:44:56;;;;;;;32.43;13.43;;;;;;;;;;7346979;19;20427;-58
2024/03/09 02:47:26;;;;;;;37.17;13.60;;;;;;;;;;7322837;19;20455;-59
2024/03/09 02:49:57;;;;;;;35.93;14.00;;;;;;;;;;7345749;19;20498;-60
2024/03/09 02:52:27;;;;;;;34.33;13.77;;;;;;;;;;7323415;19;20839;-59
2024/03/09 02:54:59;;;;;;;36.40;13.73;;;;;;;;;;7350217;19;20439;-58
2024/03/09 02:57:28;;;;;;;36.83;15.93;;;;;;;;;;7329803;19;21253;-58
2024/03/09 03:00:00;;;;;;;35.87;14.00;;;;;;;;;;7351332;19;20434;-61
2024/03/09 03:05:12;;;;;;;33.47;13.53;;;;;;;;;;7351562;19;20419;-61
2024/03/09 03:07:42;;;;;;;29.57;12.80;;;;;;;;;;7330923;19;20439;-60
2024/03/09 03:10:15;;;;;;;33.90;14.87;;;;;;;;;;7351137;19;20407;-57
2024/03/09 03:12:45;;;;;;;32.60;14.00;;;;;;;;;;7331477;19;20466;-62
2024/03/09 03:15:14;;;;;;;35.20;14.30;;;;;;;;;;7352077;19;20950;-61
2024/03/09 03:17:44;;;;;;;35.90;14.00;;;;;;;;;;7329285;19;20802;-59
2024/03/09 03:20:15;;;;;;;34.93;14.97;;;;;;;;;;7351378;19;20510;-58
2024/03/09 03:22:47;;;;;;;38.80;15.40;;;;;;;;;;7331316;19;20395;-60
2024/03/09 03:25:19;;;;;;;36.90;14.47;;;;;;;;;;7337906;19;20427;-58
2024/03/09 03:27:49;;;;;;;31.90;14.37;;;;;;;;;;7351124;19;20457;-59
2024/03/09 03:30:19;;;;;;;33.23;12.90;;;;;;;;;;7328356;19;20406;-58
2024/03/09 03:32:50;;;;;;;36.10;14.27;;;;;;;;;;7352733;19;20426;-59
2024/03/09 03:35:20;;;;;;;34.93;14.03;;;;;;;;;;7329003;19;20929;-59
2024/03/09 03:37:49;;;;;;;38.33;15.13;;;;;;;;;;7350816;19;20386;-55
2024/03/09 03:40:22;;;;;;;34.83;14.10;;;;;;;;;;7328316;19;21044;-58
2024/03/09 03:42:53;;;;;;;36.87;15.80;;;;;;;;;;7351504;19;20403;-57
2024/03/09 03:45:22;;;;;;;34.70;14.17;;;;;;;;;;7328823;19;20482;-59
2024/03/09 03:47:52;;;;;;;48.17;14.83;;;;;;;;;;7350418;19;21038;-61
2024/03/09 03:50:23;;;;;;;33.90;14.27;;;;;;;;;;7327729;19;20823;-60
2024/03/09 03:52:53;;;;;;;42.60;13.57;;;;;;;;;;7351990;19;20408;-60
2024/03/09 03:55:26;;;;;;;38.40;15.20;;;;;;;;;;7328487;19;20541;-60
2024/03/09 03:57:56;;;;;;;33.40;13.87;;;;;;;;;;7350675;19;20412;-60
2024/03/09 04:00:26;;;;;;;35.60;15.90;;;;;;;;;;7327949;19;20469;-60
2024/03/09 04:02:55;;;;;;;38.53;16.00;;;;;;;;;;7350760;19;20423;-59
2024/03/09 04:05:29;;;;;;;35.80;14.73;;;;;;;;;;7326575;19;20438;-57
2024/03/09 04:07:58;;;;;;;33.90;14.80;;;;;;;;;;7349053;19;20410;-60
2024/03/09 04:10:30;;;;;;;46.00;14.33;;;;;;;;;;7327758;19;20818;-58
2024/03/09 04:12:59;;;;;;;33.13;14.80;;;;;;;;;;7349989;19;20497;-61
2024/03/09 04:15:29;;;;;;;33.97;13.30;;;;;;;;;;7328207;19;20419;-60
2024/03/09 04:18:02;;;;;;;35.37;13.70;;;;;;;;;;7347243;19;20434;-61
2024/03/09 04:20:33;;;;;;;35.77;15.80;;;;;;;;;;7327602;19;20419;-59
2024/03/09 04:23:05;;;;;;;28.50;13.57;;;;;;;;;;7349646;19;20426;-57
2024/03/09 04:25:38;;;;;;;36.87;14.50;;;;;;;;;;7327800;19;20435;-59
2024/03/09 04:28:12;;;;;;;34.33;14.63;;;;;;;;;;7349727;19;20426;-59
2024/03/09 04:30:42;;;;;;;29.27;13.00;;;;;;;;;;7328522;19;20403;-56
2024/03/09 04:33:12;;;;;;;39.03;15.40;;;;;;;;;;7349922;19;20545;-59
2024/03/09 04:35:42;;;;;;;35.77;14.73;;;;;;;;;;7328929;19;20453;-57
2024/03/09 04:38:16;;;;;;;34.60;15.17;;;;;;;;;;7349185;19;20434;-59
2024/03/09 04:40:49;;;;;;;44.87;16.30;;;;;;;;;;7328491;19;20585;-59
2024/03/09 04:43:20;;;;;;;37.23;15.07;;;;;;;;;;7327274;19;20431;-56
2024/03/09 04:45:50;;;;;;;36.93;15.37;;;;;;;;;;7349854;19;20387;-60
2024/03/09 04:48:18;;;;;;;43.37;17.40;;;;;;;;;;7325429;19;20414;-62
2024/03/09 04:50:48;;;;;;;41.47;16.17;;;;;;;;;;7348926;19;20400;-59
2024/03/09 04:53:18;;;;;;;37.77;15.20;;;;;;;;;;7328219;19;20403;-60
2024/03/09 04:55:53;;;;;;;42.53;17.30;;;;;;;;;;7349255;19;20415;-58
2024/03/09 04:58:25;;;;;;;126.73;45.87;;;;;;;;;;7326382;19;20488;-59
2024/03/09 05:00:54;;;;;;;45.73;18.07;;;;;;;;;;7348838;19;20443;-59
2024/03/09 05:03:24;;;;;;;47.63;19.00;;;;;;;;;;7325660;19;20502;-59
2024/03/09 05:05:53;;;;;;;42.50;17.50;;;;;;;;;;7349756;19;21767;-59
2024/03/09 05:08:23;;;;;;;38.60;16.67;;;;;;;;;;7325922;19;20430;-58
2024/03/09 05:10:55;;;;;;;37.30;15.97;;;;;;;;;;7348293;19;21173;-57
2024/03/09 05:13:24;;;;;;;52.00;18.90;;;;;;;;;;7326153;19;21294;-58
2024/03/09 05:15:54;;;;;;;44.27;17.53;;;;;;;;;;7349260;19;20430;-61
2024/03/09 05:18:23;;;;;;;33.70;15.47;;;;;;;;;;7323728;19;20414;-60
2024/03/09 05:20:53;;;;;;;37.55;17.33;;;;;;;;;;7348015;19;20403;-62
2024/03/09 05:23:23;;;;;;;43.90;16.67;;;;;;;;;;7325815;19;20253;-62
2024/03/09 05:25:55;;;;;;;41.80;15.57;;;;;;;;;;7348605;19;20395;-58
2024/03/09 05:28:24;;;;;;;44.97;17.53;;;;;;;;;;7322394;19;20460;-59
2024/03/09 05:30:55;;;;;;;38.83;15.50;;;;;;;;;;7348427;19;20437;-59
2024/03/09 05:33:24;;;;;;;39.33;15.57;;;;;;;;;;7325941;19;20492;-59
2024/03/09 05:35:54;;;;;;;59.67;17.03;;;;;;;;;;7349264;19;20388;-60
2024/03/09 05:38:23;;;;;;;42.40;17.27;;;;;;;;;;7324570;19;20981;-59
2024/03/09 05:40:55;;;;;;;40.05;16.23;;;;;;;;;;7347490;19;20396;-59
2024/03/09 05:43:24;;;;;;;42.40;16.60;;;;;;;;;;7325314;19;20194;-59
2024/03/09 05:45:54;;;;;;;39.67;17.53;;;;;;;;;;7347594;19;20978;-57
2024/03/09 05:48:23;;;;;;;42.00;16.63;;;;;;;;;;7323835;19;20490;-59
2024/03/09 05:50:53;;;;;;;40.53;15.48;;;;;;;;;;7347156;19;20426;-59
2024/03/09 05:53:26;;;;;;;39.83;15.70;;;;;;;;;;7324990;19;20200;-60
2024/03/09 05:55:58;;;;;;;37.70;16.70;;;;;;;;;;7347039;19;20435;-57
2024/03/09 05:58:27;;;;;;;39.83;16.17;;;;;;;;;;7324803;19;20213;-60
2024/03/09 06:00:57;;;;;;;42.35;17.27;;;;;;;;;;7346837;19;20403;-60
2024/03/09 06:03:26;;;;;;;42.57;16.60;;;;;;;;;;7325070;19;20202;-62
2024/03/09 06:05:56;;;;;;;40.83;16.33;;;;;;;;;;7347017;19;20402;-60
2024/03/09 06:08:25;;;;;;;39.75;15.80;;;;;;;;;;7324239;19;20438;-57
2024/03/09 06:10:58;;;;;;;45.97;16.98;;;;;;;;;;7346537;19;20198;-60
2024/03/09 06:13:30;;;;;;;40.40;16.20;;;;;;;;;;7324440;19;20190;-61
2024/03/09 06:16:00;;;;;;;39.13;16.55;;;;;;;;;;7346383;19;20584;-61
2024/03/09 06:18:29;;;;;;;56.23;23.80;;;;;;;;;;7322428;19;20210;-58
2024/03/09 06:20:59;;;;;;;50.40;19.27;;;;;;;;;;7346085;19;20431;-60
2024/03/09 06:23:28;;;;;;;84.93;35.03;;;;;;;;;;7324265;19;20471;-60
2024/03/09 06:26:01;;;;;;;66.77;27.37;;;;;;;;;;7347166;19;20823;-61
2024/03/09 06:28:30;;;;;;;56.67;23.40;;;;;;;;;;7321639;19;20442;-60
2024/03/09 06:31:03;;;;;;;46.40;20.57;;;;;;;;;;7344920;19;20427;-59
2024/03/09 06:33:32;;;;;;;40.57;17.80;;;;;;;;;;7324260;19;20431;-60
2024/03/09 06:36:05;;;;;;;38.67;16.90;;;;;;;;;;7345799;19;20442;-59
2024/03/09 06:38:35;;;;;;;38.80;17.50;;;;;;;;;;7323492;19;20423;-56
2024/03/09 06:41:07;;;;;;;37.43;17.27;;;;;;;;;;7345232;19;20445;-59
2024/03/09 06:43:36;;;;;;;35.23;16.53;;;;;;;;;;7324008;19;20417;-61
2024/03/09 06:46:08;;;;;;;46.40;18.10;;;;;;;;;;7345420;19;20422;-59
2024/03/09 06:48:37;;;;;;;88.77;34.47;;;;;;;;;;7322883;19;20395;-58
2024/03/09 06:51:07;;;;;;;52.03;21.47;;;;;;;;;;7344582;19;20488;-60
2024/03/09 06:53:37;;;;;;;166.77;65.30;;;;;;;;;;7323664;19;20387;-59
2024/03/09 06:56:09;;;;;;;106.63;43.53;;;;;;;;;;7344735;19;20435;-59
2024/03/09 06:58:38;;;;;;;72.53;31.90;;;;;;;;;;7323496;19;20932;-59
2024/03/09 07:01:07;;;;;;;42.83;19.50;;;;;;;;;;7344145;19;20425;-59
2024/03/09 07:03:38;;;;;;;42.47;18.23;;;;;;;;;;7323298;19;20456;-58
2024/03/09 07:06:08;;;;;;;37.47;17.77;;;;;;;;;;7344671;19;21018;-59
2024/03/09 07:08:38;;;;;;;36.97;17.37;;;;;;;;;;7322697;19;20399;-58
2024/03/09 07:11:10;;;;;;;43.27;17.70;;;;;;;;;;7343973;19;20794;-58
2024/03/09 07:13:40;;;;;;;47.20;18.33;;;;;;;;;;7323354;19;20798;-61
2024/03/09 07:16:10;;;;;;;34.83;16.33;;;;;;;;;;7344723;19;20415;-56
2024/03/09 07:18:40;;;;;;;39.33;17.00;;;;;;;;;;7320521;19;20771;-59
2024/03/09 07:21:10;;;;;;;40.00;17.57;;;;;;;;;;7344196;19;20415;-59
2024/03/09 07:23:40;;;;;;;42.97;18.83;;;;;;;;;;7322620;19;20398;-60
2024/03/09 07:26:13;;;;;;;40.57;18.07;;;;;;;;;;7344510;19;20500;-56
2024/03/09 07:28:43;;;;;;;41.50;16.90;;;;;;;;;;7322484;19;20961;-55
2024/03/09 07:31:13;;;;;;;47.70;17.27;;;;;;;;;;7343546;19;20427;-61
2024/03/09 07:33:43;;;;;;;44.60;18.80;;;;;;;;;;7323712;19;20375;-55
2024/03/09 07:36:13;;;;;;;47.20;19.87;;;;;;;;;;7344163;19;20423;-60
2024/03/09 07:38:45;;;;;;;44.10;19.97;;;;;;;;;;7322794;19;20399;-59
2024/03/09 07:41:20;;;;;;;45.80;18.77;;;;;;;;;;7346138;19;20427;-59
2024/03/09 07:43:51;;;;;;;45.23;18.07;;;;;;;;;;7330823;19;20399;-56
2024/03/09 07:46:21;;;;;;;47.07;18.77;;;;;;;;;;7328688;19;20494;-60
2024/03/09 07:48:50;;;;;;;52.73;19.17;;;;;;;;;;7349987;19;20958;-59
2024/03/09 07:51:20;;;;;;;45.57;18.30;;;;;;;;;;7327451;19;20849;-58
2024/03/09 07:53:52;;;;;;;45.00;17.50;;;;;;;;;;7350690;19;20946;-59
2024/03/09 07:56:24;;;;;;;42.97;19.30;;;;;;;;;;7328956;19;20495;-60
2024/03/09 07:58:54;;;;;;;45.17;18.07;;;;;;;;;;7351049;19;20415;-58
2024/03/09 08:01:23;;;;;;;50.10;18.53;;;;;;;;;;7327191;19;20463;-57
2024/03/09 08:03:53;;;;;;;40.93;16.73;;;;;;;;;;7350981;19;20402;-57
2024/03/09 08:06:22;;;;;;;41.73;18.03;;;;;;;;;;7327641;19;20438;-59
2024/03/09 08:08:52;;;;;;;39.93;16.63;;;;;;;;;;7350280;19;20423;-60
2024/03/09 08:11:24;;;;;;;40.83;17.63;;;;;;;;;;7327207;19;20449;-62
2024/03/09 08:13:55;;;;;;;45.90;19.17;;;;;;;;;;7350544;19;20423;-59
2024/03/09 08:16:25;;;;;;;39.83;18.20;;;;;;;;;;7328138;19;20406;-60
2024/03/09 08:18:55;;;;;;;38.60;16.63;;;;;;;;;;7349136;19;20885;-58
2024/03/09 08:21:24;;;;;;;39.37;16.77;;;;;;;;;;7326574;19;20439;-60
2024/03/09 08:23:53;;;;;;;45.50;19.03;;;;;;;;;;7350260;19;20435;-60
2024/03/09 08:26:25;;;;;;;37.40;16.77;;;;;;;;;;7327318;19;20419;-59
2024/03/09 08:28:55;;;;;;;39.07;16.67;;;;;;;;;;7349621;19;20447;-57
2024/03/09 08:31:24;;;;;;;42.23;17.20;;;;;;;;;;7327149;19;20510;-60
2024/03/09 08:33:55;;;;;;;38.43;16.20;;;;;;;;;;7350079;19;20382;-59
2024/03/09 08:36:26;;;;;;;42.83;17.30;;;;;;;;;;7328089;19;20431;-59
2024/03/09 08:38:57;;;;;;;42.77;17.43;;;;;;;;;;7348297;19;20431;-60
2024/03/09 08:41:32;;;;;;;41.67;16.90;;;;;;;;;;7323499;19;20523;-58
2024/03/09 08:44:02;;;;;;;41.00;16.30;;;;;;;;;;7341425;19;20514;-59
2024/03/09 08:46:31;;;;;;;34.50;15.10;;;;;;;;;;7326839;19;20434;-58
2024/03/09 08:49:00;;;;;;;39.80;16.63;;;;;;;;;;7349153;19;20427;-59
2024/03/09 08:51:30;;;;;;;44.03;17.90;;;;;;;;;;7325046;19;20439;-57
2024/03/09 08:54:00;;;;;;;40.33;16.60;;;;;;;;;;7348352;19;20412;-58
2024/03/09 08:56:32;;;;;;;40.63;17.40;;;;;;;;;;7326389;19;20494;-58
2024/03/09 08:59:02;;;;;;;37.40;17.17;;;;;;;;;;7349169;19;20996;-57
2024/03/09 09:01:32;;;;;;;43.43;17.93;;;;;;;;;;7322778;19;20426;-60
2024/03/09 09:04:04;;;;;;;35.50;15.70;;;;;;;;;;7350116;19;20427;-55
2024/03/09 09:06:34;;;;;;;37.47;16.10;;;;;;;;;;7326330;19;20423;-58
2024/03/09 09:09:09;;;;;;;39.57;18.00;;;;;;;;;;7347626;19;20498;-57
2024/03/09 09:11:41;;;;;;;43.93;17.77;;;;;;;;;;7325159;19;20437;-57
2024/03/09 09:14:11;;;;;;;34.87;15.67;;;;;;;;;;7348401;19;20438;-59
2024/03/09 09:16:41;;;;;;;37.00;16.23;;;;;;;;;;7326685;19;20426;-55
2024/03/09 09:19:11;;;;;;;37.53;16.57;;;;;;;;;;7345700;19;21020;-57
2024/03/09 09:21:40;;;;;;;36.70;16.70;;;;;;;;;;7324786;19;20471;-55
2024/03/09 09:24:10;;;;;;;39.97;16.53;;;;;;;;;;7346364;19;20985;-58
2024/03/09 09:26:43;;;;;;;35.67;16.10;;;;;;;;;;7325472;19;20772;-55
2024/03/09 09:29:12;;;;;;;44.27;16.90;;;;;;;;;;7347196;19;20507;-58
2024/03/09 09:31:42;;;;;;;39.23;16.57;;;;;;;;;;7323015;19;20403;-58
2024/03/09 09:34:12;;;;;;;41.23;17.63;;;;;;;;;;7347882;19;20445;-57
2024/03/09 09:36:45;;;;;;;35.03;16.70;;;;;;;;;;7325792;19;20395;-60
2024/03/09 09:39:20;;;;;;;36.63;15.83;;;;;;;;;;7346865;19;20419;-61
2024/03/09 09:41:52;;;;;;;36.57;16.50;;;;;;;;;;7327081;19;20887;-57
2024/03/09 09:44:23;;;;;;;36.97;16.13;;;;;;;;;;7323699;19;20785;-60
2024/03/09 09:46:52;;;;;;;35.53;15.30;;;;;;;;;;7346809;19;20399;-60
2024/03/09 09:49:24;;;;;;;34.07;15.10;;;;;;;;;;7322698;19;20425;-61
2024/03/09 09:51:56;;;;;;;39.67;17.93;;;;;;;;;;7346262;19;21002;-59
2024/03/09 09:54:26;;;;;;;40.03;16.43;;;;;;;;;;7320931;19;20415;-60
2024/03/09 09:56:59;;;;;;;32.33;15.23;;;;;;;;;;7346229;19;20399;-59
2024/03/09 09:59:29;;;;;;;36.87;15.37;;;;;;;;;;7323004;19;20499;-52
2024/03/09 10:01:58;;;;;;;40.33;15.93;;;;;;;;;;7347425;19;20475;-56
2024/03/09 10:04:28;;;;;;;43.50;18.90;;;;;;;;;;7319182;19;20803;-59
2024/03/09 10:07:09;;;;;;;39.20;17.50;;;;;;;;;;7345918;19;21146;-57
2024/03/09 10:09:38;;;;;;;59.40;26.27;;;;;;;;;;7322037;19;21037;-58
2024/03/09 10:12:20;;;;;;;35.40;16.83;;;;;;;;;;7345015;19;20423;-57
2024/03/09 10:14:51;;;;;;;45.80;19.10;;;;;;;;;;7324893;19;20391;-57
2024/03/09 10:17:22;;;;;;;38.73;18.40;;;;;;;;;;7319325;19;20454;-59
2024/03/09 10:19:52;;;;;;;31.33;15.70;;;;;;;;;;7344939;19;20407;-56
2024/03/09 10:22:22;;;;;;;32.03;16.57;;;;;;;;;;7322262;19;20424;-58
2024/03/09 10:24:56;;;;;;;31.63;14.37;;;;;;;;;;7345274;19;20406;-59
2024/03/09 10:27:28;;;;;;;33.40;13.60;;;;;;;;;;7322765;19;20493;-57
2024/03/09 10:30:10;;;;;;;26.17;11.70;;;;;;;;;;7345654;19;20798;-57
2024/03/09 10:32:41;;;;;;;32.50;13.80;;;;;;;;;;7323179;19;20391;-59
2024/03/09 10:35:12;;;;;;;30.13;14.30;;;;;;;;;;7345809;19;20431;-58
2024/03/09 10:37:42;;;;;;;31.87;13.60;;;;;;;;;;7323952;19;20518;-60
2024/03/09 10:40:13;;;;;;;35.23;14.43;;;;;;;;;;7344983;19;20462;-57
2024/03/09 10:42:46;;;;;;;27.67;13.17;;;;;;;;;;7323522;19;20391;-58
2024/03/09 10:45:17;;;;;;;28.27;12.47;;;;;;;;;;7345603;19;20534;-58
2024/03/09 10:47:49;;;;;;;28.53;14.10;;;;;;;;;;7323875;19;20889;-59
2024/03/09 10:50:24;;;;;;;29.53;12.80;;;;;;;;;;7321669;19;20484;-56
2024/03/09 10:53:03;;;;;;;24.23;12.13;;;;;;;;;;7346206;19;20398;-57
2024/03/09 10:55:39;;;;;;;35.00;13.03;;;;;;;;;;7321042;19;20427;-56
2024/03/09 10:58:12;;;;;;;27.70;12.90;;;;;;;;;;7344287;19;20423;-58
2024/03/09 11:00:41;;;;;;;34.27;15.57;;;;;;;;;;7343585;19;20419;-59
2024/03/09 11:03:12;;;;;;;31.97;14.23;;;;;;;;;;7343918;19;20796;-60
2024/03/09 11:05:41;;;;;;;28.37;12.97;;;;;;;;;;7389401;19;20772;-59
2024/03/09 11:08:11;;;;;;;30.80;13.73;;;;;;;;;;7322185;19;20855;-59
2024/03/09 11:10:43;;;;;;;30.43;13.93;;;;;;;;;;7342544;19;20418;-59
2024/03/09 11:13:18;;;;;;;31.73;13.80;;;;;;;;;;7321443;19;20435;-59
2024/03/09 11:15:50;;;;;;;32.30;14.70;;;;;;;;;;7347752;19;20435;-55
2024/03/09 11:18:21;;;;;;;28.67;14.10;;;;;;;;;;7327908;19;20967;-56
2024/03/09 11:20:54;;;;;;;36.10;15.00;;;;;;;;;;7350428;19;20416;-60
2024/03/09 11:23:24;;;;;;;33.80;15.03;;;;;;;;;;7327055;19;20509;-59
2024/03/09 11:25:54;;;;;;;25.93;12.97;;;;;;;;;;7340202;19;20415;-59
2024/03/09 11:28:27;;;;;;;34.63;16.47;;;;;;;;;;7320106;19;20441;-60
2024/03/09 11:31:10;;;;;;;25.27;13.17;;;;;;;;;;7345206;19;20502;-59
2024/03/09 11:33:45;;;;;;;26.60;14.90;;;;;;;;;;7327438;19;20400;-60
2024/03/09 11:36:36;;;;;;;26.20;12.83;;;;;;;;;;7324891;19;21000;-60
2024/03/09 11:39:05;;;;;;;36.63;15.40;;;;;;;;;;7327859;19;20502;-60
2024/03/09 11:41:35;;;;;;;21.90;11.50;;;;;;;;;;7349529;19;21276;-59
2024/03/09 11:44:07;;;;;;;23.50;11.70;;;;;;;;;;7327463;19;20497;-56
2024/03/09 11:46:36;;;;;;;23.83;10.30;;;;;;;;;;7348404;19;20438;-60
2024/03/09 11:49:06;;;;;;;18.90;9.77;;;;;;;;;;7327323;19;20426;-60
2024/03/09 11:51:39;;;;;;;16.80;9.70;;;;;;;;;;7348988;19;20417;-57
2024/03/09 11:54:10;;;;;;;26.90;10.23;;;;;;;;;;7324637;19;20421;-59
2024/03/09 11:56:41;;;;;;;20.30;9.70;;;;;;;;;;7336148;19;20428;-60
2024/03/09 11:59:14;;;;;;;16.60;9.00;;;;;;;;;;7319462;19;20417;-61
2024/03/09 12:01:43;;;;;;;20.43;9.53;;;;;;;;;;7341464;19;20437;-60
2024/03/09 12:04:13;;;;;;;22.07;10.10;;;;;;;;;;7319215;19;20743;-59
2024/03/09 12:06:43;;;;;;;20.17;8.60;;;;;;;;;;7339237;19;20807;-60
2024/03/09 12:09:13;;;;;;;21.50;11.03;;;;;;;;;;7319960;19;20427;-58
2024/03/09 12:11:45;;;;;;;29.80;11.40;;;;;;;;;;7339216;19;20423;-61
2024/03/09 12:14:19;;;;;;;23.87;10.13;;;;;;;;;;7324587;19;20442;-60
2024/03/09 12:16:51;;;;;;;25.93;10.27;;;;;;;;;;7349061;19;20924;-59
2024/03/09 12:19:18;;;;;;;22.33;9.93;;;;;;;;;;7325930;19;20455;-61
2024/03/09 12:21:48;;;;;;;23.10;9.93;;;;;;;;;;7349126;19;20451;-59
2024/03/09 12:24:17;;;;;;;23.87;9.83;;;;;;;;;;7325916;19;21109;-59
2024/03/09 12:26:47;;;;;;;22.30;9.97;;;;;;;;;;7346513;19;20467;-59
2024/03/09 12:29:16;;;;;;;27.63;12.70;;;;;;;;;;7325519;19;20503;-60
2024/03/09 12:31:49;;;;;;;23.60;11.97;;;;;;;;;;7348195;19;20460;-60
2024/03/09 12:34:18;;;;;;;24.97;10.90;;;;;;;;;;7326408;19;20437;-61
2024/03/09 12:36:54;;;;;;;23.17;11.13;;;;;;;;;;7347368;19;20880;-60
2024/03/09 12:39:23;;;;;;;25.20;11.67;;;;;;;;;;7325779;19;20380;-58
2024/03/09 12:41:54;;;;;;;21.43;11.70;;;;;;;;;;7347547;19;20985;-57
2024/03/09 12:44:27;;;;;;;23.53;10.93;;;;;;;;;;7327504;19;20486;-57
2024/03/09 12:47:02;;;;;;;22.60;10.97;;;;;;;;;;7348540;19;20448;-59
2024/03/09 12:49:33;;;;;;;28.50;13.13;;;;;;;;;;7326883;19;20399;-61
2024/03/09 12:52:03;;;;;;;21.60;10.73;;;;;;;;;;7333785;19;20436;-59
2024/03/09 12:54:41;;;;;;;27.27;12.53;;;;;;;;;;7345997;19;20426;-57
2024/03/09 12:57:10;;;;;;;25.43;13.23;;;;;;;;;;7325980;19;20473;-59
2024/03/09 12:59:40;;;;;;;25.50;11.80;;;;;;;;;;7346751;19;20400;-58
2024/03/09 13:02:11;;;;;;;24.93;11.83;;;;;;;;;;7325466;19;20464;-59
2024/03/09 13:04:41;;;;;;;23.93;11.53;;;;;;;;;;7347715;19;20399;-61
2024/03/09 13:07:14;;;;;;;20.80;10.87;;;;;;;;;;7322942;19;20451;-61
2024/03/09 13:09:44;;;;;;;24.17;12.37;;;;;;;;;;7346930;19;20410;-60
2024/03/09 13:12:13;;;;;;;21.00;11.47;;;;;;;;;;7324473;19;20444;-60
2024/03/09 13:14:43;;;;;;;22.20;11.60;;;;;;;;;;7372214;19;20399;-60
2024/03/09 13:17:16;;;;;;;21.80;12.07;;;;;;;;;;7345339;19;20467;-62
2024/03/09 13:19:47;;;;;;;25.40;13.50;;;;;;;;;;7346059;19;20478;-60
2024/03/09 13:22:17;;;;;;;24.20;12.90;;;;;;;;;;7324443;19;20384;-60
2024/03/09 13:24:47;;;;;;;22.07;12.20;;;;;;;;;;7346459;19;20410;-62
2024/03/09 13:27:17;;;;;;;22.27;12.47;;;;;;;;;;7323486;19;20384;-61
2024/03/09 13:29:46;;;;;;;24.23;13.50;;;;;;;;;;7347275;19;20819;-61
2024/03/09 13:32:18;;;;;;;22.20;11.67;;;;;;;;;;7322940;19;20427;-61
2024/03/09 13:34:48;;;;;;;26.13;12.53;;;;;;;;;;7346827;19;20402;-59
2024/03/09 13:37:18;;;;;;;22.60;12.27;;;;;;;;;;7323628;19;20416;-59
2024/03/09 13:39:49;;;;;;;21.93;12.57;;;;;;;;;;7342982;19;20423;-58
2024/03/09 13:42:18;;;;;;;26.57;14.37;;;;;;;;;;7323106;19;20415;-56
2024/03/09 13:44:49;;;;;;;28.77;14.17;;;;;;;;;;7345948;19;20422;-61
2024/03/09 13:47:21;;;;;;;25.33;12.93;;;;;;;;;;7345984;19;20471;-58
2024/03/09 13:49:52;;;;;;;25.83;13.30;;;;;;;;;;7345954;19;20396;-59
2024/03/09 13:52:23;;;;;;;26.73;13.13;;;;;;;;;;7346421;19;20461;-60
2024/03/09 13:54:55;;;;;;;25.90;14.40;;;;;;;;;;7343727;19;20458;-59
2024/03/09 13:57:25;;;;;;;30.80;14.60;;;;;;;;;;7324386;19;20407;-56
2024/03/09 13:59:55;;;;;;;29.43;13.57;;;;;;;;;;7343734;19;20473;-58
2024/03/09 14:02:27;;;;;;;27.20;13.23;;;;;;;;;;7345282;19;20419;-58
2024/03/09 14:04:57;;;;;;;25.90;14.30;;;;;;;;;;7322855;19;20470;-57
2024/03/09 14:07:27;;;;;;;29.80;13.93;;;;;;;;;;7344393;19;20515;-60
2024/03/09 14:09:56;;;;;;;25.30;13.17;;;;;;;;;;7323776;19;20935;-59
2024/03/09 14:12:26;;;;;;;25.63;13.93;;;;;;;;;;7344462;19;20982;-59
2024/03/09 14:14:56;;;;;;;27.83;15.50;;;;;;;;;;7337272;19;20505;-57
2024/03/09 14:17:28;;;;;;;26.20;13.47;;;;;;;;;;7344080;19;20801;-61
2024/03/09 14:20:03;;;;;;;21.70;11.97;;;;;;;;;;7321187;19;20977;-59
2024/03/09 14:22:34;;;;;;;26.43;13.10;;;;;;;;;;7343654;19;20403;-60
2024/03/09 14:25:08;;;;;;;23.20;12.57;;;;;;;;;;7321706;19;20403;-58
2024/03/09 14:27:40;;;;;;;23.50;11.97;;;;;;;;;;7344224;19;20474;-60
2024/03/09 14:30:10;;;;;;;23.97;11.83;;;;;;;;;;7320958;19;20428;-60
2024/03/09 14:32:42;;;;;;;116.67;60.30;;;;;;;;;;7343307;19;20478;-60
2024/03/09 14:35:16;;;;;;;32.80;16.13;;;;;;;;;;7321754;19;20440;-59
2024/03/09 14:37:52;;;;;;;24.40;12.70;;;;;;;;;;7343583;19;20413;-58
2024/03/09 14:40:23;;;;;;;56.90;28.07;;;;;;;;;;7321933;19;21013;-59